createdAt,value
2022-10-31T00:01:03.445Z,86
2022-10-31T00:04:28.702Z,86
2022-10-31T00:07:53.914Z,86
2022-10-31T00:11:19.166Z,86
2022-10-31T00:14:44.390Z,86
2022-10-31T00:18:09.594Z,86
2022-10-31T00:21:34.800Z,85
2022-10-31T00:25:00.060Z,85
2022-10-31T00:28:25.297Z,83
2022-10-31T00:31:50.464Z,83
2022-10-31T00:35:15.706Z,82
2022-10-31T00:38:40.962Z,82
2022-10-31T00:42:06.192Z,82
2022-10-31T00:45:31.468Z,83
2022-10-31T00:48:56.669Z,82
2022-10-31T00:52:21.901Z,82
2022-10-31T00:55:47.112Z,83
2022-10-31T00:59:12.359Z,82
2022-10-31T01:02:37.784Z,82
2022-10-31T01:06:02.826Z,83
2022-10-31T01:09:28.143Z,83
2022-10-31T01:12:53.397Z,83
2022-10-31T01:16:18.608Z,85
2022-10-31T01:19:43.866Z,85
2022-10-31T01:23:09.053Z,86
2022-10-31T01:26:34.265Z,84
2022-10-31T01:29:59.470Z,85
2022-10-31T01:33:25.551Z,86
2022-10-31T01:36:50.810Z,86
2022-10-31T01:40:16.013Z,84
2022-10-31T01:43:41.233Z,83
2022-10-31T01:47:06.471Z,85
2022-10-31T01:50:31.709Z,85
2022-10-31T01:53:56.963Z,86
2022-10-31T01:57:22.182Z,86
2022-10-31T02:00:47.459Z,87
2022-10-31T02:04:12.620Z,85
2022-10-31T02:07:37.834Z,84
2022-10-31T02:11:03.101Z,83
2022-10-31T02:14:28.281Z,82
2022-10-31T02:17:53.487Z,82
2022-10-31T02:21:18.756Z,82
2022-10-31T02:24:43.952Z,83
2022-10-31T02:28:09.258Z,84
2022-10-31T02:31:34.401Z,85
2022-10-31T02:34:59.622Z,84
2022-10-31T02:38:24.846Z,84
2022-10-31T02:41:50.076Z,83
2022-10-31T02:45:15.304Z,84
2022-10-31T02:48:40.486Z,83
2022-10-31T02:52:05.709Z,83
2022-10-31T02:55:30.943Z,85
2022-10-31T02:58:56.159Z,84
2022-10-31T03:02:21.515Z,84
2022-10-31T03:05:46.643Z,83
2022-10-31T03:09:11.871Z,82
2022-10-31T03:12:37.100Z,83
2022-10-31T03:16:02.355Z,83
2022-10-31T03:19:27.583Z,82
2022-10-31T03:22:52.779Z,83
2022-10-31T03:26:18.011Z,82
2022-10-31T03:29:43.249Z,81
2022-10-31T03:33:08.475Z,81
2022-10-31T03:36:33.724Z,81
2022-10-31T03:39:58.918Z,80
2022-10-31T03:43:24.162Z,81
2022-10-31T03:46:49.349Z,82
2022-10-31T03:50:14.584Z,82
2022-10-31T03:53:39.818Z,81
2022-10-31T03:57:05.013Z,82
2022-10-31T04:00:30.254Z,79
2022-10-31T04:03:55.465Z,81
2022-10-31T04:07:20.677Z,81
2022-10-31T04:10:45.907Z,80
2022-10-31T04:14:11.090Z,81
2022-10-31T04:17:36.313Z,81
2022-10-31T04:21:01.547Z,82
2022-10-31T04:24:26.723Z,82
2022-10-31T04:27:51.970Z,81
2022-10-31T04:31:17.172Z,80
2022-10-31T04:34:42.361Z,81
2022-10-31T04:38:07.582Z,82
2022-10-31T04:41:32.805Z,82
2022-10-31T04:44:58.043Z,82
2022-10-31T04:48:23.231Z,82
2022-10-31T04:51:48.438Z,82
2022-10-31T04:55:13.655Z,82
2022-10-31T04:58:38.883Z,82
2022-10-31T05:02:04.212Z,82
2022-10-31T05:05:29.306Z,82
2022-10-31T05:08:54.543Z,82
2022-10-31T05:12:19.776Z,82
2022-10-31T05:15:45.007Z,82
2022-10-31T05:19:10.658Z,82
2022-10-31T05:22:35.882Z,82
2022-10-31T05:26:01.093Z,81
2022-10-31T05:29:26.301Z,81
2022-10-31T05:32:51.534Z,81
2022-10-31T05:36:16.757Z,81
2022-10-31T05:39:41.962Z,81
2022-10-31T05:43:07.166Z,81
2022-10-31T05:49:57.603Z,80
2022-10-31T05:53:22.844Z,81
2022-10-31T05:56:48.050Z,81
2022-10-31T06:00:13.260Z,81
2022-10-31T06:03:38.495Z,81
2022-10-31T06:07:03.686Z,81
2022-10-31T06:10:28.922Z,82
2022-10-31T06:13:54.124Z,82
2022-10-31T06:17:19.322Z,83
2022-10-31T06:20:44.542Z,83
2022-10-31T06:24:09.746Z,83
2022-10-31T06:27:35.065Z,83
2022-10-31T06:31:00.264Z,84
2022-10-31T06:34:25.488Z,84
2022-10-31T06:37:50.724Z,84
2022-10-31T06:41:15.916Z,84
2022-10-31T06:44:41.144Z,85
2022-10-31T06:48:22.143Z,85
2022-10-31T06:51:31.536Z,85
2022-10-31T06:54:56.789Z,85
2022-10-31T06:58:22.032Z,85
2022-10-31T07:01:47.309Z,85
2022-10-31T07:05:12.461Z,85
2022-10-31T07:08:37.698Z,85
2022-10-31T07:12:02.941Z,85
2022-10-31T07:15:28.254Z,84
2022-10-31T07:18:53.525Z,85
2022-10-31T07:22:18.803Z,85
2022-10-31T07:25:44.088Z,86
2022-10-31T07:29:09.340Z,86
2022-10-31T07:32:34.616Z,86
2022-10-31T07:35:59.881Z,86
2022-10-31T07:39:25.111Z,86
2022-10-31T07:42:50.388Z,86
2022-10-31T07:46:15.682Z,86
2022-10-31T07:49:40.923Z,86
2022-10-31T07:53:06.232Z,85
2022-10-31T07:56:31.485Z,84
2022-10-31T07:59:56.745Z,83
2022-10-31T08:03:22.025Z,82
2022-10-31T08:06:47.296Z,83
2022-10-31T08:10:12.635Z,82
2022-10-31T08:13:37.876Z,81
2022-10-31T08:17:03.121Z,82
2022-10-31T08:20:28.401Z,81
2022-10-31T08:23:53.678Z,81
2022-10-31T08:27:18.947Z,81
2022-10-31T08:30:44.152Z,80
2022-10-31T08:34:09.444Z,80
2022-10-31T08:37:34.705Z,78
2022-10-31T08:40:59.980Z,77
2022-10-31T08:44:25.315Z,80
2022-10-31T08:47:50.553Z,80
2022-10-31T08:51:15.804Z,80
2022-10-31T08:54:41.052Z,78
2022-10-31T08:58:06.316Z,79
2022-10-31T09:01:31.683Z,81
2022-10-31T09:04:56.763Z,79
2022-10-31T09:08:21.998Z,79
2022-10-31T09:11:47.209Z,77
2022-10-31T09:15:12.463Z,78
2022-10-31T09:18:37.716Z,77
2022-10-31T09:22:02.913Z,79
2022-10-31T09:25:28.150Z,79
2022-10-31T09:28:53.419Z,79
2022-10-31T09:32:18.662Z,79
2022-10-31T09:35:43.948Z,78
2022-10-31T09:39:09.127Z,78
2022-10-31T09:42:34.347Z,77
2022-10-31T09:45:59.589Z,76
2022-10-31T09:49:24.927Z,76
2022-10-31T09:52:50.097Z,76
2022-10-31T09:56:15.309Z,77
2022-10-31T09:59:40.532Z,77
2022-10-31T10:03:05.773Z,77
2022-10-31T10:06:31.012Z,78
2022-10-31T10:09:56.278Z,79
2022-10-31T10:13:21.510Z,78
2022-10-31T10:16:46.759Z,77
2022-10-31T10:20:12.709Z,76
2022-10-31T10:23:37.260Z,76
2022-10-31T10:27:02.522Z,77
2022-10-31T10:30:27.768Z,76
2022-10-31T10:33:53.016Z,75
2022-10-31T10:37:18.258Z,75
2022-10-31T10:40:43.506Z,76
2022-10-31T10:44:08.746Z,77
2022-10-31T10:47:33.975Z,77
2022-10-31T10:50:59.211Z,77
2022-10-31T10:54:24.426Z,77
2022-10-31T10:57:49.657Z,77
2022-10-31T11:04:40.122Z,76
2022-10-31T11:08:05.373Z,76
2022-10-31T11:11:30.615Z,76
2022-10-31T11:14:55.830Z,76
2022-10-31T11:18:21.107Z,77
2022-10-31T11:21:49.839Z,76
2022-10-31T11:25:11.563Z,75
2022-10-31T11:28:36.805Z,75
2022-10-31T11:32:02.053Z,76
2022-10-31T11:35:27.389Z,75
2022-10-31T11:38:52.576Z,76
2022-10-31T11:42:17.853Z,75
2022-10-31T11:45:43.158Z,75
2022-10-31T11:49:08.424Z,74
2022-10-31T11:52:33.726Z,75
2022-10-31T11:55:58.978Z,74
2022-10-31T11:59:24.246Z,74
2022-10-31T12:02:49.587Z,74
2022-10-31T12:06:14.808Z,73
2022-10-31T12:09:40.122Z,73
2022-10-31T12:13:05.341Z,73
2022-10-31T12:16:30.619Z,75
2022-10-31T12:19:56.262Z,72
2022-10-31T12:23:21.281Z,73
2022-10-31T12:26:46.573Z,72
2022-10-31T12:30:11.882Z,73
2022-10-31T12:33:37.147Z,72
2022-10-31T12:37:02.441Z,72
2022-10-31T12:40:27.709Z,72
2022-10-31T12:43:52.983Z,73
2022-10-31T12:47:18.224Z,74
2022-10-31T12:50:43.475Z,74
2022-10-31T12:54:08.726Z,74
2022-10-31T12:57:33.999Z,74
2022-10-31T13:00:59.299Z,74
2022-10-31T13:04:24.539Z,73
2022-10-31T13:07:49.836Z,74
2022-10-31T13:11:15.104Z,73
2022-10-31T13:14:40.374Z,72
2022-10-31T13:18:05.655Z,72
2022-10-31T13:21:30.892Z,72
2022-10-31T13:24:56.171Z,73
2022-10-31T13:28:21.422Z,73
2022-10-31T13:31:47.125Z,75
2022-10-31T13:35:14.796Z,76
2022-10-31T13:38:48.555Z,76
2022-10-31T13:42:13.893Z,76
2022-10-31T13:45:39.207Z,74
2022-10-31T13:49:04.578Z,74
2022-10-31T13:52:29.872Z,74
2022-10-31T13:55:55.108Z,75
2022-10-31T13:59:20.372Z,75
2022-10-31T14:02:45.656Z,75
2022-10-31T14:06:10.926Z,76
2022-10-31T14:09:36.225Z,76
2022-10-31T14:13:01.464Z,77
2022-10-31T14:16:26.718Z,78
2022-10-31T14:19:51.976Z,78
2022-10-31T14:23:17.266Z,79
2022-10-31T14:26:42.562Z,80
2022-10-31T14:30:07.798Z,80
2022-10-31T15:05:12.494Z,84
2022-10-31T15:08:37.785Z,83
2022-10-31T15:12:03.085Z,84
2022-10-31T15:15:28.345Z,84
2022-10-31T15:18:53.627Z,84
2022-10-31T15:22:18.940Z,84
2022-10-31T15:25:44.167Z,84
2022-10-31T15:29:09.433Z,84
2022-10-31T15:32:34.683Z,84
2022-10-31T15:35:59.955Z,84
2022-10-31T15:39:25.274Z,84
2022-10-31T15:42:50.584Z,84
2022-10-31T15:46:15.815Z,84
2022-10-31T15:49:41.082Z,83
2022-10-31T15:53:06.589Z,84
2022-10-31T15:56:31.594Z,84
2022-10-31T15:59:56.885Z,84
2022-10-31T16:03:22.112Z,84
2022-10-31T16:06:47.346Z,84
2022-10-31T16:10:12.564Z,85
2022-10-31T16:13:37.819Z,85
2022-10-31T16:17:03.084Z,85
2022-10-31T16:20:28.329Z,85
2022-10-31T16:23:57.939Z,85
2022-10-31T16:27:18.783Z,85
2022-10-31T16:30:48.158Z,86
2022-10-31T16:34:09.242Z,86
2022-10-31T16:37:34.491Z,86
2022-10-31T16:40:59.737Z,86
2022-10-31T16:44:24.948Z,86
2022-10-31T16:47:50.195Z,87
2022-10-31T16:51:15.377Z,87
2022-10-31T16:54:40.611Z,87
2022-10-31T16:58:05.806Z,87
2022-10-31T17:01:31.125Z,87
2022-10-31T17:04:56.764Z,87
2022-10-31T17:08:21.450Z,86
2022-10-31T17:11:49.286Z,86
2022-10-31T17:15:11.908Z,86
2022-10-31T17:18:37.149Z,87
2022-10-31T17:22:02.409Z,87
2022-10-31T17:25:27.591Z,87
2022-10-31T17:28:52.823Z,86
2022-10-31T17:32:18.055Z,86
2022-10-31T17:35:43.249Z,86
2022-10-31T17:39:08.541Z,86
2022-10-31T17:42:33.820Z,86
2022-10-31T17:45:59.064Z,86
2022-10-31T17:49:24.286Z,86
2022-10-31T17:52:49.733Z,87
2022-10-31T17:56:15.629Z,87
2022-10-31T17:59:40.811Z,87
2022-10-31T18:03:06.064Z,87
2022-10-31T18:06:31.240Z,86
2022-10-31T18:09:56.491Z,86
2022-10-31T18:13:21.714Z,87
2022-10-31T18:16:46.930Z,86
2022-10-31T18:20:12.140Z,86
2022-10-31T18:23:37.355Z,86
2022-10-31T18:27:02.547Z,86
2022-10-31T18:30:27.764Z,87
2022-10-31T18:33:52.939Z,87
2022-10-31T18:37:18.191Z,86
2022-10-31T18:40:43.613Z,86
2022-10-31T18:44:08.806Z,86
2022-10-31T18:47:34.068Z,86
2022-10-31T18:50:59.352Z,86
2022-10-31T18:54:24.492Z,86
2022-10-31T18:57:49.699Z,86
2022-10-31T19:01:15.092Z,86
2022-10-31T19:04:40.177Z,86
2022-10-31T19:08:05.357Z,86
2022-10-31T19:11:30.563Z,86
2022-10-31T19:14:55.784Z,85
2022-10-31T19:18:21.028Z,87
2022-10-31T19:21:46.242Z,87
2022-10-31T19:25:11.449Z,85
2022-10-31T19:28:36.657Z,84
2022-10-31T19:32:01.838Z,84
2022-10-31T19:35:27.042Z,85
2022-10-31T19:38:52.253Z,84
2022-10-31T19:42:17.428Z,84
2022-10-31T19:45:42.639Z,83
2022-10-31T19:49:07.852Z,83
2022-10-31T19:52:33.057Z,83
2022-10-31T19:55:58.289Z,85
2022-10-31T19:59:23.448Z,85
2022-10-31T20:02:48.655Z,86
2022-10-31T20:06:13.870Z,86
2022-10-31T20:09:39.090Z,86
2022-10-31T20:13:04.509Z,86
2022-10-31T20:16:29.502Z,86
2022-10-31T20:19:54.693Z,86
2022-10-31T20:23:19.886Z,85
2022-10-31T20:26:45.082Z,85
2022-10-31T20:30:10.321Z,85
2022-10-31T20:33:35.517Z,85
2022-10-31T20:37:00.711Z,84
2022-10-31T20:40:25.907Z,84
2022-10-31T20:43:51.355Z,84
2022-10-31T20:47:18.463Z,85
2022-10-31T20:50:41.817Z,85
2022-10-31T20:54:07.007Z,85
2022-10-31T20:57:32.202Z,85
2022-10-31T21:00:57.435Z,85
2022-10-31T21:04:22.612Z,85
2022-10-31T21:07:47.856Z,86
2022-10-31T21:11:13.009Z,86
2022-10-31T21:14:38.220Z,86
2022-10-31T21:18:03.426Z,85
2022-10-31T21:21:31.966Z,85
2022-10-31T21:24:53.795Z,85
2022-10-31T21:28:18.986Z,85
2022-10-31T21:31:44.191Z,84
2022-10-31T21:35:09.411Z,84
2022-10-31T21:38:34.682Z,84
2022-10-31T21:41:59.874Z,84
2022-10-31T21:45:25.090Z,84
2022-10-31T21:48:50.303Z,84
2022-10-31T21:52:15.519Z,84
2022-10-31T21:55:40.717Z,84
2022-10-31T21:59:05.913Z,83
2022-10-31T22:02:31.141Z,83
2022-10-31T22:05:59.692Z,83
2022-10-31T22:09:21.567Z,83
2022-10-31T22:12:46.809Z,83
2022-10-31T22:16:12.007Z,83
2022-10-31T22:19:37.242Z,83
2022-10-31T22:23:02.449Z,84
2022-10-31T22:26:27.661Z,84
2022-10-31T22:29:56.506Z,84
2022-10-31T22:33:18.079Z,84
2022-10-31T22:36:43.322Z,83
2022-10-31T22:40:08.514Z,83
2022-10-31T22:43:33.705Z,84
2022-10-31T22:46:58.940Z,84
2022-10-31T22:50:24.118Z,84
2022-10-31T22:53:49.349Z,84
2022-10-31T22:57:14.574Z,84
2022-10-31T23:00:39.828Z,85
2022-10-31T23:04:05.128Z,85
2022-10-31T23:07:32.919Z,85
2022-10-31T23:10:55.478Z,84
2022-10-31T23:14:21.091Z,84
2022-10-31T23:17:45.927Z,84
2022-10-31T23:21:11.179Z,84
2022-10-31T23:24:36.384Z,84
2022-10-31T23:28:01.613Z,83
2022-10-31T23:31:26.847Z,83
2022-10-31T23:34:52.067Z,83
2022-10-31T23:38:17.303Z,84
2022-10-31T23:41:42.517Z,83
2022-10-31T23:45:07.751Z,83
2022-10-31T23:48:32.957Z,83
2022-10-31T23:51:58.198Z,84
2022-10-31T23:55:23.445Z,84
2022-10-31T23:58:48.651Z,85
